Latest Weather Observations for Broken Hill Airport

IDN60801

Issued at 9:32 am EST Wednesday 5 August 2015 (issued every 30 minutes, with the page automatically refreshed every 10 minutes)

About weather observations | Map of weather stations | Latest weather observations for NSW | Other Formats
Station Details ID: 047048 Name: BROKEN HILL AIRPORT AWS Lat: -32.00 Lon: 141.47 Height: 281.3 m
Data from the previous 72 hours. | See also: Recent months at Broken Hill Airport
Date/Time
EST
Temp
°C
App
Temp
°C
Dew
Point
Rel
Hum
%
Delta-T
°C
Wind Press
QNH
hPa
Press
MSL
hPa
Rain
since 9 am
mm
Dir
 
Spd
km/h
Gust
km/h
Spd
kts
Gust
kts
05/09:30am 8.9 2.6 5.5 79 1.6 W 28 35 15 19 1023.1 1023.1 0.0
05/09:00am 7.7 2.8 5.2 84 1.1 WNW 20 28 11 15 1023.0 1023.0 0.0
05/08:30am 6.6 1.8 4.6 87 0.9 WNW 19 22 10 12 1023.0 1023.0 0.0
05/08:23am 6.3 1.5 4.5 88 0.8 NW 19 26 10 14 1022.8 1022.9 0.0
05/08:12am 6.1 1.2 4.1 87 0.9 NW 19 26 10 14 1022.8 1022.9 0.0
05/08:00am 6.2 1.0 3.7 84 1.1 WNW 20 28 11 15 1022.8 1022.9 0.0
05/07:30am 6.2 0.9 3.2 81 1.3 WNW 20 28 11 15 1022.6 1022.7 0.0
05/07:00am 5.9 0.6 3.1 82 1.2 NW 20 24 11 13 1022.3 1022.4 0.0
05/06:30am 5.7 -0.4 2.7 81 1.2 NW 24 30 13 16 1022.1 1022.2 0.0
05/06:00am 5.4 0.0 2.2 80 1.3 NW 20 28 11 15 1022.2 1022.3 0.0
05/05:30am 5.4 0.6 2.4 81 1.2 NW 17 20 9 11 1022.3 1022.4 0.0
05/05:00am 5.1 -0.1 2.3 82 1.1 NW 19 24 10 13 1022.3 1022.4 0.0
05/04:30am 5.0 -0.2 2.2 82 1.1 NW 19 20 10 11 1022.3 1022.4 0.0
05/04:00am 5.0 0.1 2.2 82 1.1 NW 17 22 9 12 1022.4 1022.5 0.0
05/03:30am 5.0 0.2 2.5 84 1.0 WNW 17 19 9 10 1022.5 1022.6 0.0
05/03:00am 4.7 0.6 2.1 83 1.1 WNW 13 15 7 8 1023.0 1023.0 0.0
05/02:30am 5.2 1.5 2.2 81 1.2 W 11 13 6 7 1023.7 1023.8 0.0
05/02:00am 5.4 1.0 2.6 82 1.2 W 15 19 8 10 1023.9 1024.0 0.0
05/01:30am 6.7 2.7 2.6 75 1.7 WSW 13 17 7 9 1024.0 1024.1 0.0
05/01:00am 8.1 3.1 3.4 72 2.0 WSW 19 26 10 14 1024.1 1024.2 0.0
05/12:30am 9.1 4.4 3.3 67 2.5 WSW 17 20 9 11 1024.3 1024.4 0.0
05/12:00am 9.3 4.5 2.4 62 2.9 W 17 20 9 11 1024.4 1024.5 0.0
 
Date/Time
EST
Temp
°C
App
Temp
°C
Dew
Point
Rel
Hum
%
Delta-T
°C
Wind Press
QNH
hPa
Press
MSL
hPa
Rain
since 9 am
mm
Dir
 
Spd
km/h
Gust
km/h
Spd
kts
Gust
kts
04/11:30pm 8.8 4.6 1.7 61 3.0 W 13 15 7 8 1024.6 1024.7 0.0
04/11:00pm 7.9 4.4 1.5 64 2.6 WNW 9 11 5 6 1024.7 1024.8 0.0
04/10:30pm 8.0 4.9 1.4 63 2.7 NW 7 11 4 6 1024.6 1024.7 0.0
04/10:00pm 8.3 6.5 1.5 62 2.8 CALM 0 0 0 0 1024.6 1024.7 0.0
04/09:30pm 8.3 6.2 1.5 62 2.8 SW 2 7 1 4 1024.7 1024.8 0.0
04/09:00pm 7.7 4.5 0.9 62 2.8 SW 7 7 4 4 1024.8 1024.9 0.0
04/08:30pm 8.3 4.3 0.5 58 3.2 SSW 11 15 6 8 1024.8 1024.9 0.0
04/08:00pm 10.2 5.9 1.3 54 3.7 SW 13 17 7 9 1024.7 1024.8 0.0
04/07:30pm 10.4 5.7 1.2 53 3.9 SW 15 19 8 10 1024.7 1024.8 0.0
04/07:00pm 10.6 5.1 0.9 51 4.0 SW 19 26 10 14 1024.7 1024.8 0.0
04/06:30pm 10.6 5.0 1.2 52 4.0 SW 20 26 11 14 1024.6 1024.7 0.0
04/06:00pm 10.7 3.9 1.0 51 4.1 SW 26 33 14 18 1024.6 1024.7 0.0
04/05:30pm 11.0 3.8 1.0 50 4.2 WSW 28 35 15 19 1024.5 1024.6 0.0
04/05:00pm 11.7 6.1 1.1 48 4.5 SW 20 30 11 16 1024.5 1024.6 0.0
04/04:30pm 11.7 5.2 0.5 46 4.7 SW 24 30 13 16 1024.6 1024.7 0.0
04/04:00pm 11.2 6.2 1.5 51 4.1 WSW 17 24 9 13 1024.5 1024.6 0.0
04/03:30pm 11.4 6.1 1.6 51 4.2 SW 19 32 10 17 1024.8 1024.9 0.0
04/03:00pm 11.1 5.7 2.2 54 3.8 SW 20 28 11 15 1024.9 1025.0 0.0
04/02:30pm 10.7 5.8 2.3 56 3.6 SW 17 24 9 13 1025.1 1025.2 0.0
04/02:00pm 10.5 5.7 2.4 57 3.5 SSW 17 24 9 13 1025.2 1025.3 0.0
04/01:30pm 10.7 5.3 1.5 53 3.9 SW 19 24 10 13 1025.6 1025.7 0.0
04/01:00pm 10.7 5.1 1.5 53 3.9 SW 20 30 11 16 1026.1 1026.2 0.0
04/12:30pm 10.2 5.2 1.3 54 3.7 SSW 17 24 9 13 1026.9 1027.0 0.0
04/12:00pm 9.9 5.0 1.8 57 3.4 SW 17 22 9 12 1027.5 1027.6 0.0
04/11:30am 9.4 4.1 2.0 60 3.2 SSW 19 24 10 13 1027.8 1027.9 0.0
04/11:00am 9.5 4.6 1.9 59 3.2 SSW 17 20 9 11 1027.8 1027.9 0.0
04/10:30am 8.9 4.5 2.9 66 2.6 SW 15 20 8 11 1027.9 1028.0 0.0
04/10:00am 9.2 5.5 4.2 71 2.2 SSW 13 17 7 9 1027.7 1027.8 0.0
04/09:30am 8.4 4.4 4.8 78 1.6 SSW 15 20 8 11 1027.9 1028.0 0.0
04/09:00am 7.1 3.5 4.9 86 1.0 SW 13 20 7 11 1027.8 1027.9 0.0
04/08:30am 5.9 3.0 4.7 92 0.5 WSW 9 13 5 7 1027.7 1027.8 0.0
04/08:00am 4.6 3.2 3.6 93 0.4 CALM 0 0 0 0 1027.2 1027.3 0.0
04/07:30am 3.4 0.1 2.2 92 0.5 WSW 9 11 5 6 1027.1 1027.2 0.0
04/07:00am 4.0 1.3 2.7 91 0.5 SW 6 7 3 4 1026.9 1027.0 0.0
04/06:30am 4.6 1.1 3.3 91 0.5 SW 11 11 6 6 1026.8 1026.9 0.0
04/06:00am 5.3 1.8 3.3 87 0.8 SW 11 13 6 7 1026.4 1026.6 0.0
04/05:30am 6.8 3.5 4.5 85 1.0 SSW 11 15 6 8 1026.2 1026.4 0.0
04/05:00am 6.1 2.2 3.4 83 1.1 SSW 13 15 7 8 1026.0 1026.1 0.0
04/04:30am 6.8 3.1 4.3 84 1.1 SSW 13 15 7 8 1026.0 1026.1 0.0
04/04:00am 6.3 2.9 4.1 86 0.9 SSW 11 13 6 7 1026.0 1026.1 0.0
04/03:30am 6.0 3.4 4.0 87 0.9 WSW 7 9 4 5 1026.0 1026.1 0.0
04/03:00am 6.3 3.0 4.3 87 0.9 WSW 11 15 6 8 1026.0 1026.1 0.0
04/02:30am 5.7 2.2 3.5 86 0.9 SSW 11 11 6 6 1026.1 1026.2 0.0
04/02:00am 6.5 3.9 4.2 85 1.0 SW 7 9 4 5 1026.3 1026.5 0.0
04/01:30am 7.1 3.8 4.6 84 1.1 SW 11 13 6 7 1026.3 1026.5 0.0
04/01:00am 8.2 4.6 5.1 81 1.4 SSW 13 15 7 8 1026.3 1026.5 0.0
04/12:30am 8.9 5.4 5.6 80 1.5 S 13 17 7 9 1026.3 1026.5 0.0
04/12:00am 8.3 5.2 5.4 82 1.3 S 11 13 6 7 1026.4 1026.6 0.0
 
Date/Time
EST
Temp
°C
App
Temp
°C
Dew
Point
Rel
Hum
%
Delta-T
°C
Wind Press
QNH
hPa
Press
MSL
hPa
Rain
since 9 am
mm
Dir
 
Spd
km/h
Gust
km/h
Spd
kts
Gust
kts
03/11:30pm 8.5 5.3 5.3 80 1.5 SSE 11 15 6 8 1026.3 1026.5 0.0
03/11:00pm 8.8 4.5 5.4 79 1.5 S 17 20 9 11 1026.3 1026.5 0.0
03/10:30pm 10.5 5.5 3.5 62 3.1 SSW 19 30 10 16 1026.2 1026.4 0.0
03/10:00pm 10.8 5.8 3.4 60 3.3 SW 19 24 10 13 1026.1 1026.2 0.0
03/09:30pm 11.0 6.5 4.2 63 3.1 SW 17 24 9 13 1026.0 1026.1 0.0
03/09:00pm 11.6 7.4 3.9 59 3.5 SW 15 17 8 9 1025.9 1026.0 0.0
03/08:30pm 12.4 6.9 3.9 56 3.9 SW 22 30 12 16 1025.8 1025.9 0.0
03/08:00pm 12.5 7.9 3.5 54 4.1 SSW 17 22 9 12 1025.5 1025.6 0.0
03/07:30pm 12.9 7.7 3.3 52 4.3 SW 20 28 11 15 1025.3 1025.4 0.0
03/07:00pm 13.1 8.0 2.9 50 4.6 SW 19 26 10 14 1025.1 1025.2 0.0
03/06:30pm 13.3 8.9 2.8 49 4.7 SW 15 19 8 10 1024.7 1024.8 0.0
03/06:00pm 13.6 8.5 2.8 48 4.8 SW 19 26 10 14 1024.5 1024.6 0.0
03/05:30pm 13.8 8.6 2.7 47 5.0 WSW 19 24 10 13 1024.5 1024.6 0.0
03/05:00pm 13.8 8.1 2.7 47 5.0 SW 22 28 12 15 1024.4 1024.5 0.0
03/04:30pm 14.6 8.9 2.8 45 5.4 SW 22 30 12 16 1024.2 1024.3 0.0
03/04:00pm 14.7 9.4 3.2 46 5.2 SW 20 26 11 14 1024.2 1024.3 0.0
03/03:30pm 14.4 8.8 3.2 47 5.1 SW 22 30 12 16 1024.1 1024.2 0.0
03/03:00pm 14.5 8.0 2.7 45 5.3 WSW 26 33 14 18 1024.0 1024.1 0.0
03/02:30pm 14.4 7.7 3.5 48 5.0 SW 28 35 15 19 1024.1 1024.2 0.0
03/02:00pm 14.2 7.5 3.9 50 4.7 WSW 28 43 15 23 1024.3 1024.4 0.0
03/01:30pm 15.0 7.7 4.7 50 4.9 WSW 32 41 17 22 1024.6 1024.7 0.0
03/01:00pm 14.2 7.8 5.0 54 4.3 WSW 28 35 15 19 1024.8 1024.9 0.0
03/12:30pm 13.7 7.7 5.1 56 4.0 SW 26 33 14 18 1025.2 1025.3 0.0
03/12:00pm 13.2 6.6 6.1 62 3.4 SW 30 39 16 21 1025.7 1025.8 0.0
03/11:30am 11.8 6.1 6.7 71 2.5 SW 26 37 14 20 1025.9 1026.0 0.0
03/11:00am 12.0 5.7 5.9 66 2.9 SW 28 35 15 19 1026.1 1026.2 0.0
03/10:30am 11.5 5.2 5.6 67 2.8 SW 28 41 15 22 1026.2 1026.4 0.0
03/10:00am 11.7 6.3 6.4 70 2.5 WSW 24 35 13 19 1026.0 1026.1 0.0
03/09:30am 10.5 4.9 5.5 71 2.3 WSW 24 32 13 17 1025.8 1025.9 0.0
03/09:00am 9.8 5.0 5.4 74 2.0 W 20 28 11 15 1025.6 1025.7 0.0
03/08:30am 8.2 3.5 5.0 80 1.4 W 19 24 10 13 1025.3 1025.4 0.0
03/08:00am 6.9 2.5 4.6 85 1.0 WNW 17 20 9 11 1025.0 1025.1 0.0
03/07:30am 5.6 0.7 3.9 89 0.7 W 19 20 10 11 1024.7 1024.8 0.0
03/07:00am 5.5 0.9 3.8 89 0.7 WNW 17 20 9 11 1024.4 1024.5 0.0
03/06:30am 5.5 0.9 3.5 87 0.8 W 17 20 9 11 1024.3 1024.4 0.0
03/06:00am 5.7 1.0 3.4 85 1.0 W 17 20 9 11 1024.1 1024.2 0.0
03/05:30am 6.3 2.1 3.6 83 1.2 W 15 19 8 10 1023.8 1023.9 0.0
03/05:00am 6.8 2.6 3.6 80 1.4 W 15 17 8 9 1023.6 1023.7 0.0
03/04:30am 8.7 4.2 4.3 74 2.0 WSW 17 24 9 13 1023.5 1023.6 0.0
03/04:00am 9.0 4.2 4.4 73 2.1 WSW 19 24 10 13 1023.5 1023.6 0.0
03/03:30am 8.5 3.4 4.3 75 1.9 W 20 24 11 13 1023.8 1023.9 0.0
03/03:00am 7.9 3.0 4.3 78 1.6 W 19 26 10 14 1023.8 1023.9 0.0
03/02:30am 6.5 1.7 2.6 76 1.6 W 17 22 9 12 1023.9 1024.0 0.0
03/02:00am 7.4 2.3 3.3 75 1.8 W 19 26 10 14 1024.1 1024.2 0.0
03/01:30am 6.9 2.1 2.4 73 1.9 W 17 20 9 11 1024.0 1024.1 0.0
03/01:00am 7.3 2.1 2.4 71 2.1 W 19 22 10 12 1024.0 1024.1 0.0
03/12:30am 7.8 2.4 2.7 70 2.2 W 20 22 11 12 1024.1 1024.2 0.0
03/12:00am 7.3 2.4 2.2 70 2.1 W 17 20 9 11 1023.9 1024.0 0.0
 
Date/Time
EST
Temp
°C
App
Temp
°C
Dew
Point
Rel
Hum
%
Delta-T
°C
Wind Press
QNH
hPa
Press
MSL
hPa
Rain
since 9 am
mm
Dir
 
Spd
km/h
Gust
km/h
Spd
kts
Gust
kts
02/11:30pm 7.4 2.1 1.9 68 2.3 W 19 20 10 11 1024.0 1024.1 0.0
02/11:00pm 7.1 2.1 1.6 68 2.3 W 17 20 9 11 1024.0 1024.1 0.0
02/10:30pm 7.3 2.2 1.0 64 2.6 WSW 17 20 9 11 1024.0 1024.1 0.0
02/10:00pm 7.4 3.1 0.8 63 2.7 WSW 13 17 7 9 1023.8 1023.9 0.0
02/09:30pm 6.9 2.2 1.2 67 2.3 WSW 15 19 8 10 1023.6 1023.7 0.0
02/09:00pm 6.3 2.6 0.2 65 2.4 W 9 11 5 6 1023.4 1023.5 0.0
02/08:30pm 7.0 3.0 0.5 63 2.6 W 11 13 6 7 1023.2 1023.3 0.0
02/08:00pm 8.1 4.9 0.8 60 3.0 WNW 7 9 4 5 1023.0 1023.0 0.0
02/07:30pm 7.5 3.0 -0.2 58 3.1 WSW 13 15 7 8 1022.6 1022.7 0.0
02/07:00pm 9.0 4.9 -0.1 53 3.7 SW 11 15 6 8 1022.4 1022.5 0.0
02/06:30pm 11.0 5.4 0.1 47 4.5 SW 19 24 10 13 1021.8 1021.9 0.0
02/06:00pm 11.8 6.0 -0.4 43 5.0 SSW 20 26 11 14 1021.2 1021.3 0.0
02/05:30pm 13.0 6.8 -0.3 40 5.6 SW 22 28 12 15 1020.8 1020.9 0.0
02/05:00pm 13.6 7.0 -0.4 38 5.9 SW 24 33 13 18 1020.3 1020.4 0.0
02/04:30pm 13.8 7.3 0.5 40 5.7 SW 24 32 13 17 1020.3 1020.4 0.0
02/04:00pm 14.0 7.1 0.3 39 5.8 SW 26 37 14 20 1020.1 1020.1 0.0
02/03:30pm 14.5 8.2 1.8 42 5.6 SW 24 35 13 19 1019.7 1019.7 0.0
02/03:00pm 14.1 8.0 2.7 46 5.1 SW 24 33 13 18 1019.4 1019.4 0.0
02/02:30pm 14.1 8.5 3.3 48 4.9 SW 22 32 12 17 1019.1 1019.2 0.0
02/02:00pm 13.9 6.8 3.7 50 4.7 SSW 30 37 16 20 1019.4 1019.4 0.0
02/01:30pm 13.2 6.6 4.1 54 4.2 SSW 28 39 15 21 1019.5 1019.5 0.0
02/01:00pm 12.4 5.7 3.6 55 4.0 SSW 28 35 15 19 1019.9 1019.9 0.0
02/12:30pm 12.2 5.7 4.7 60 3.5 SSW 28 39 15 21 1020.2 1020.3 0.0
02/12:00pm 11.2 4.7 4.7 64 3.0 SSW 28 37 15 20 1020.3 1020.4 0.0
02/11:30am 11.0 5.0 5.1 67 2.7 SSW 26 39 14 21 1020.4 1020.5 0.0
02/11:00am 10.1 3.7 5.3 72 2.2 SSW 28 35 15 19 1020.4 1020.5 0.0
02/10:53am 10.5 3.8 5.7 72 2.2 SSW 30 39 16 21 1020.3 1020.4 0.0
02/10:30am 10.0 3.7 5.8 75 2.0 SSW 28 35 15 19 1020.1 1020.1 0.0

Other Formats:

Comma delimited format used in spreadsheet applications
http://www.bom.gov.au/fwo/IDN60801/IDN60801.94691.axf

JavaScript Object Notation format (JSON) in row-major order
http://www.bom.gov.au/fwo/IDN60801/IDN60801.94691.json